sensor_id;sensor_type;location;lat;lon;timestamp;temperature;humidity
15969;DHT22;8085;53.472;9.794;2024-01-10T06:09:04;-4.90;99.90
15969;DHT22;8085;53.472;9.794;2024-01-10T06:11:32;-4.90;99.90
15969;DHT22;8085;53.472;9.794;2024-01-10T06:14:23;-4.90;99.90
15969;DHT22;8085;53.472;9.794;2024-01-10T06:17:10;-4.80;99.90
15969;DHT22;8085;53.472;9.794;2024-01-10T06:23:30;-4.70;99.90
15969;DHT22;8085;53.472;9.794;2024-01-10T06:48:41;-4.20;99.90
15969;DHT22;8085;53.472;9.794;2024-01-10T06:51:10;-4.30;99.90
15969;DHT22;8085;53.472;9.794;2024-01-10T06:53:37;-4.30;99.90
15969;DHT22;8085;53.472;9.794;2024-01-10T06:56:05;-4.20;99.90
15969;DHT22;8085;53.472;9.794;2024-01-10T06:58:31;-4.20;99.90
15969;DHT22;8085;53.472;9.794;2024-01-10T07:00:58;-4.30;99.90
15969;DHT22;8085;53.472;9.794;2024-01-10T07:03:26;-4.30;99.90
15969;DHT22;8085;53.472;9.794;2024-01-10T07:05:54;-4.20;99.90
15969;DHT22;8085;53.472;9.794;2024-01-10T07:08:22;-4.20;99.90
15969;DHT22;8085;53.472;9.794;2024-01-10T07:10:49;-4.20;99.90
15969;DHT22;8085;53.472;9.794;2024-01-10T07:13:16;-4.20;99.90
15969;DHT22;8085;53.472;9.794;2024-01-10T07:15:43;-4.10;99.90
15969;DHT22;8085;53.472;9.794;2024-01-10T07:18:09;-4.10;99.90
15969;DHT22;8085;53.472;9.794;2024-01-10T07:20:36;-4.10;99.90
15969;DHT22;8085;53.472;9.794;2024-01-10T07:23:05;-4.10;99.90
15969;DHT22;8085;53.472;9.794;2024-01-10T07:25:32;-4.10;99.90
15969;DHT22;8085;53.472;9.794;2024-01-10T07:27:59;-4.10;99.90
15969;DHT22;8085;53.472;9.794;2024-01-10T07:30:26;-4.10;99.90
15969;DHT22;8085;53.472;9.794;2024-01-10T07:32:53;-4.20;99.90
15969;DHT22;8085;53.472;9.794;2024-01-10T07:35:20;-4.10;99.90
15969;DHT22;8085;53.472;9.794;2024-01-10T07:37:47;-4.20;99.90
15969;DHT22;8085;53.472;9.794;2024-01-10T07:40:16;-4.10;99.90
15969;DHT22;8085;53.472;9.794;2024-01-10T07:42:43;-4.10;99.90
15969;DHT22;8085;53.472;9.794;2024-01-10T07:45:11;-4.10;99.90
15969;DHT22;8085;53.472;9.794;2024-01-10T07:47:38;-4.10;99.90
15969;DHT22;8085;53.472;9.794;2024-01-10T07:50:05;-4.10;99.90
15969;DHT22;8085;53.472;9.794;2024-01-10T07:52:32;-4.10;99.90
15969;DHT22;8085;53.472;9.794;2024-01-10T07:54:59;-4.10;99.90
15969;DHT22;8085;53.472;9.794;2024-01-10T07:57:28;-4.10;99.90
15969;DHT22;8085;53.472;9.794;2024-01-10T07:59:54;-4.10;99.90
15969;DHT22;8085;53.472;9.794;2024-01-10T08:02:21;-4.10;99.90
15969;DHT22;8085;53.472;9.794;2024-01-10T08:04:48;-4.10;99.90
15969;DHT22;8085;53.472;9.794;2024-01-10T08:07:15;-4.00;99.90
15969;DHT22;8085;53.472;9.794;2024-01-10T08:09:42;-4.00;99.90
15969;DHT22;8085;53.472;9.794;2024-01-10T08:12:09;-3.90;99.90
15969;DHT22;8085;53.472;9.794;2024-01-10T08:14:39;-3.90;99.90
15969;DHT22;8085;53.472;9.794;2024-01-10T08:17:06;-3.90;99.90
15969;DHT22;8085;53.472;9.794;2024-01-10T08:19:33;-3.90;99.90
15969;DHT22;8085;53.472;9.794;2024-01-10T08:22:01;-3.90;99.90
15969;DHT22;8085;53.472;9.794;2024-01-10T08:24:28;-3.90;99.90
15969;DHT22;8085;53.472;9.794;2024-01-10T08:26:55;-3.90;99.90
15969;DHT22;8085;53.472;9.794;2024-01-10T08:29:22;-3.90;99.90
15969;DHT22;8085;53.472;9.794;2024-01-10T08:31:53;-3.80;99.90
15969;DHT22;8085;53.472;9.794;2024-01-10T08:34:20;-3.80;99.90
15969;DHT22;8085;53.472;9.794;2024-01-10T08:36:47;-3.80;99.90
15969;DHT22;8085;53.472;9.794;2024-01-10T08:39:16;-3.80;99.90
15969;DHT22;8085;53.472;9.794;2024-01-10T08:41:43;-3.80;99.90
15969;DHT22;8085;53.472;9.794;2024-01-10T08:44:10;-3.70;99.90
15969;DHT22;8085;53.472;9.794;2024-01-10T08:46:37;-3.70;99.90
15969;DHT22;8085;53.472;9.794;2024-01-10T08:49:05;-3.70;99.90
15969;DHT22;8085;53.472;9.794;2024-01-10T08:51:32;-3.70;99.90
15969;DHT22;8085;53.472;9.794;2024-01-10T08:54:00;-3.70;99.90
15969;DHT22;8085;53.472;9.794;2024-01-10T08:56:27;-3.70;99.90
15969;DHT22;8085;53.472;9.794;2024-01-10T08:58:55;-3.70;99.90
15969;DHT22;8085;53.472;9.794;2024-01-10T09:01:22;-3.60;99.90
15969;DHT22;8085;53.472;9.794;2024-01-10T09:03:50;-3.60;99.90
15969;DHT22;8085;53.472;9.794;2024-01-10T09:06:28;-3.70;99.90
15969;DHT22;8085;53.472;9.794;2024-01-10T09:08:56;-3.70;99.90
15969;DHT22;8085;53.472;9.794;2024-01-10T09:11:23;-3.60;99.90
15969;DHT22;8085;53.472;9.794;2024-01-10T09:13:50;-3.60;99.90
15969;DHT22;8085;53.472;9.794;2024-01-10T09:16:17;-3.60;99.90
15969;DHT22;8085;53.472;9.794;2024-01-10T09:18:45;-3.60;99.90
15969;DHT22;8085;53.472;9.794;2024-01-10T09:21:11;-3.60;99.90
15969;DHT22;8085;53.472;9.794;2024-01-10T09:23:40;-3.60;99.90
15969;DHT22;8085;53.472;9.794;2024-01-10T09:26:07;-3.50;99.90
15969;DHT22;8085;53.472;9.794;2024-01-10T09:28:35;-3.50;99.90
15969;DHT22;8085;53.472;9.794;2024-01-10T09:31:01;-3.40;99.90
15969;DHT22;8085;53.472;9.794;2024-01-10T09:33:28;-3.40;99.90
15969;DHT22;8085;53.472;9.794;2024-01-10T09:35:55;-3.40;99.90
15969;DHT22;8085;53.472;9.794;2024-01-10T09:38:22;-3.40;99.90
15969;DHT22;8085;53.472;9.794;2024-01-10T09:40:51;-3.40;99.90
15969;DHT22;8085;53.472;9.794;2024-01-10T09:43:18;-3.50;99.90
15969;DHT22;8085;53.472;9.794;2024-01-10T09:45:48;-3.50;99.90
15969;DHT22;8085;53.472;9.794;2024-01-10T09:48:16;-3.50;99.90
15969;DHT22;8085;53.472;9.794;2024-01-10T09:50:44;-3.50;99.90
15969;DHT22;8085;53.472;9.794;2024-01-10T09:53:21;-3.50;99.90
15969;DHT22;8085;53.472;9.794;2024-01-10T09:55:50;-3.50;99.90
15969;DHT22;8085;53.472;9.794;2024-01-10T09:58:17;-3.40;99.90
15969;DHT22;8085;53.472;9.794;2024-01-10T10:00:44;-3.40;99.90
15969;DHT22;8085;53.472;9.794;2024-01-10T10:03:11;-3.30;99.90
15969;DHT22;8085;53.472;9.794;2024-01-10T10:05:40;-3.30;99.90
15969;DHT22;8085;53.472;9.794;2024-01-10T10:08:09;-3.20;99.90
15969;DHT22;8085;53.472;9.794;2024-01-10T10:10:36;-3.20;99.90
15969;DHT22;8085;53.472;9.794;2024-01-10T10:13:09;-3.20;99.90
15969;DHT22;8085;53.472;9.794;2024-01-10T10:15:37;-3.30;99.90
15969;DHT22;8085;53.472;9.794;2024-01-10T10:18:04;-3.30;99.90
15969;DHT22;8085;53.472;9.794;2024-01-10T10:20:31;-3.40;99.90
15969;DHT22;8085;53.472;9.794;2024-01-10T10:23:02;-3.40;99.90
15969;DHT22;8085;53.472;9.794;2024-01-10T10:25:30;-3.40;99.90
15969;DHT22;8085;53.472;9.794;2024-01-10T10:27:58;-3.40;99.90
15969;DHT22;8085;53.472;9.794;2024-01-10T10:30:26;-3.30;99.90
15969;DHT22;8085;53.472;9.794;2024-01-10T10:32:54;-3.30;99.90
15969;DHT22;8085;53.472;9.794;2024-01-10T10:35:21;-3.30;99.90
15969;DHT22;8085;53.472;9.794;2024-01-10T10:37:49;-3.20;99.90
15969;DHT22;8085;53.472;9.794;2024-01-10T10:40:16;-3.20;99.90
15969;DHT22;8085;53.472;9.794;2024-01-10T10:42:47;-3.20;99.90
15969;DHT22;8085;53.472;9.794;2024-01-10T10:45:16;-3.20;99.90
15969;DHT22;8085;53.472;9.794;2024-01-10T10:47:46;-3.20;99.90
15969;DHT22;8085;53.472;9.794;2024-01-10T10:50:21;-3.10;99.90
15969;DHT22;8085;53.472;9.794;2024-01-10T10:52:49;-3.10;99.90
15969;DHT22;8085;53.472;9.794;2024-01-10T10:55:17;-3.10;99.90
15969;DHT22;8085;53.472;9.794;2024-01-10T10:57:45;-3.10;99.90
